sensor_id;sensor_type;location;lat;lon;timestamp;P1;durP1;ratioP1;P2;durP2;ratioP2
651;SDS011;310;48.490;9.200;2022-07-10T00:00:04;8.20;;;6.30;;
651;SDS011;310;48.490;9.200;2022-07-10T00:02:32;8.43;;;6.50;;
651;SDS011;310;48.490;9.200;2022-07-10T00:04:57;10.97;;;6.47;;
651;SDS011;310;48.490;9.200;2022-07-10T00:07:23;9.60;;;6.63;;
651;SDS011;310;48.490;9.200;2022-07-10T00:09:49;8.20;;;6.47;;
651;SDS011;310;48.490;9.200;2022-07-10T00:12:14;9.97;;;7.23;;
651;SDS011;310;48.490;9.200;2022-07-10T00:14:40;9.97;;;7.50;;
651;SDS011;310;48.490;9.200;2022-07-10T00:17:06;8.27;;;6.90;;
651;SDS011;310;48.490;9.200;2022-07-10T00:19:32;8.83;;;6.97;;
651;SDS011;310;48.490;9.200;2022-07-10T00:21:57;9.77;;;6.73;;
651;SDS011;310;48.490;9.200;2022-07-10T00:24:23;11.00;;;6.87;;
651;SDS011;310;48.490;9.200;2022-07-10T00:26:48;8.40;;;6.70;;
651;SDS011;310;48.490;9.200;2022-07-10T00:29:14;9.03;;;7.40;;
651;SDS011;310;48.490;9.200;2022-07-10T00:31:40;10.40;;;7.60;;
651;SDS011;310;48.490;9.200;2022-07-10T00:34:06;9.23;;;6.87;;
651;SDS011;310;48.490;9.200;2022-07-10T00:36:32;9.50;;;6.33;;
651;SDS011;310;48.490;9.200;2022-07-10T00:38:57;7.97;;;6.67;;
651;SDS011;310;48.490;9.200;2022-07-10T00:41:23;8.10;;;6.63;;
651;SDS011;310;48.490;9.200;2022-07-10T00:43:55;16.20;;;7.20;;
651;SDS011;310;48.490;9.200;2022-07-10T00:46:22;14.10;;;6.97;;
651;SDS011;310;48.490;9.200;2022-07-10T00:48:49;12.40;;;8.10;;
651;SDS011;310;48.490;9.200;2022-07-10T00:51:15;11.30;;;8.23;;
651;SDS011;310;48.490;9.200;2022-07-10T00:53:43;10.50;;;8.30;;
651;SDS011;310;48.490;9.200;2022-07-10T00:56:10;9.10;;;7.90;;
651;SDS011;310;48.490;9.200;2022-07-10T00:58:37;14.80;;;7.20;;
651;SDS011;310;48.490;9.200;2022-07-10T01:01:04;9.73;;;7.40;;
651;SDS011;310;48.490;9.200;2022-07-10T01:03:31;13.50;;;9.43;;
651;SDS011;310;48.490;9.200;2022-07-10T01:05:57;11.03;;;7.83;;
651;SDS011;310;48.490;9.200;2022-07-10T01:08:23;13.10;;;8.20;;
651;SDS011;310;48.490;9.200;2022-07-10T01:10:49;11.73;;;8.70;;
651;SDS011;310;48.490;9.200;2022-07-10T01:13:15;11.83;;;7.90;;
651;SDS011;310;48.490;9.200;2022-07-10T01:15:40;10.80;;;8.30;;
651;SDS011;310;48.490;9.200;2022-07-10T01:18:07;11.07;;;8.03;;
651;SDS011;310;48.490;9.200;2022-07-10T01:20:32;13.40;;;8.13;;
651;SDS011;310;48.490;9.200;2022-07-10T01:22:59;10.43;;;8.20;;
651;SDS011;310;48.490;9.200;2022-07-10T01:25:25;9.40;;;7.77;;
651;SDS011;310;48.490;9.200;2022-07-10T01:27:51;11.10;;;7.60;;
651;SDS011;310;48.490;9.200;2022-07-10T01:30:17;11.03;;;8.23;;
651;SDS011;310;48.490;9.200;2022-07-10T01:32:44;12.07;;;8.10;;
651;SDS011;310;48.490;9.200;2022-07-10T01:35:10;11.57;;;8.77;;
651;SDS011;310;48.490;9.200;2022-07-10T01:37:36;11.70;;;8.03;;
651;SDS011;310;48.490;9.200;2022-07-10T01:40:03;12.07;;;7.90;;
651;SDS011;310;48.490;9.200;2022-07-10T01:42:29;9.90;;;8.43;;
651;SDS011;310;48.490;9.200;2022-07-10T01:44:54;22.07;;;8.27;;
651;SDS011;310;48.490;9.200;2022-07-10T01:47:20;10.20;;;8.10;;
651;SDS011;310;48.490;9.200;2022-07-10T01:49:49;12.13;;;8.73;;
651;SDS011;310;48.490;9.200;2022-07-10T01:52:16;11.07;;;7.77;;
651;SDS011;310;48.490;9.200;2022-07-10T01:54:42;11.40;;;7.57;;
651;SDS011;310;48.490;9.200;2022-07-10T01:57:07;10.40;;;8.10;;
651;SDS011;310;48.490;9.200;2022-07-10T01:59:33;10.20;;;7.80;;
651;SDS011;310;48.490;9.200;2022-07-10T02:01:58;8.60;;;6.93;;
651;SDS011;310;48.490;9.200;2022-07-10T02:04:24;11.07;;;7.90;;
651;SDS011;310;48.490;9.200;2022-07-10T02:09:34;10.83;;;7.30;;
651;SDS011;310;48.490;9.200;2022-07-10T02:12:00;14.17;;;7.60;;
651;SDS011;310;48.490;9.200;2022-07-10T02:14:27;12.07;;;7.17;;
651;SDS011;310;48.490;9.200;2022-07-10T02:16:52;10.43;;;7.80;;
651;SDS011;310;48.490;9.200;2022-07-10T02:19:18;10.23;;;7.10;;
651;SDS011;310;48.490;9.200;2022-07-10T02:21:44;11.87;;;7.60;;
651;SDS011;310;48.490;9.200;2022-07-10T02:24:11;10.53;;;8.20;;
651;SDS011;310;48.490;9.200;2022-07-10T02:26:37;10.73;;;7.33;;
651;SDS011;310;48.490;9.200;2022-07-10T02:29:02;8.40;;;7.47;;
651;SDS011;310;48.490;9.200;2022-07-10T02:31:28;9.40;;;7.80;;
651;SDS011;310;48.490;9.200;2022-07-10T02:33:54;13.40;;;7.63;;
651;SDS011;310;48.490;9.200;2022-07-10T02:36:19;10.30;;;7.83;;
651;SDS011;310;48.490;9.200;2022-07-10T02:38:45;10.73;;;8.03;;
651;SDS011;310;48.490;9.200;2022-07-10T02:41:11;10.97;;;8.30;;
651;SDS011;310;48.490;9.200;2022-07-10T02:43:37;13.93;;;8.83;;
651;SDS011;310;48.490;9.200;2022-07-10T02:46:02;9.73;;;8.30;;
651;SDS011;310;48.490;9.200;2022-07-10T02:48:28;9.90;;;8.20;;
651;SDS011;310;48.490;9.200;2022-07-10T02:50:54;10.40;;;8.07;;
651;SDS011;310;48.490;9.200;2022-07-10T02:53:20;18.73;;;9.50;;
651;SDS011;310;48.490;9.200;2022-07-10T02:55:45;10.97;;;8.50;;
651;SDS011;310;48.490;9.200;2022-07-10T02:58:11;10.40;;;8.23;;
651;SDS011;310;48.490;9.200;2022-07-10T03:00:37;10.67;;;8.73;;
651;SDS011;310;48.490;9.200;2022-07-10T03:03:02;11.97;;;8.53;;
651;SDS011;310;48.490;9.200;2022-07-10T03:05:28;11.80;;;8.63;;
651;SDS011;310;48.490;9.200;2022-07-10T03:07:54;10.17;;;8.50;;
651;SDS011;310;48.490;9.200;2022-07-10T03:10:19;12.67;;;8.57;;
651;SDS011;310;48.490;9.200;2022-07-10T03:12:45;10.60;;;8.43;;
651;SDS011;310;48.490;9.200;2022-07-10T03:15:13;11.73;;;8.43;;
651;SDS011;310;48.490;9.200;2022-07-10T03:17:39;14.13;;;8.90;;
651;SDS011;310;48.490;9.200;2022-07-10T03:20:07;12.27;;;9.40;;
651;SDS011;310;48.490;9.200;2022-07-10T03:22:34;12.50;;;9.57;;
651;SDS011;310;48.490;9.200;2022-07-10T03:24:59;13.57;;;11.50;;
651;SDS011;310;48.490;9.200;2022-07-10T03:27:25;17.67;;;11.80;;
651;SDS011;310;48.490;9.200;2022-07-10T03:29:51;15.50;;;11.57;;
651;SDS011;310;48.490;9.200;2022-07-10T03:32:17;17.50;;;10.80;;
651;SDS011;310;48.490;9.200;2022-07-10T03:34:42;17.77;;;11.73;;
651;SDS011;310;48.490;9.200;2022-07-10T03:37:08;16.47;;;10.80;;
651;SDS011;310;48.490;9.200;2022-07-10T03:39:34;12.33;;;10.97;;
651;SDS011;310;48.490;9.200;2022-07-10T03:41:59;15.40;;;12.30;;
651;SDS011;310;48.490;9.200;2022-07-10T03:44:25;17.70;;;12.77;;
651;SDS011;310;48.490;9.200;2022-07-10T03:46:51;15.23;;;11.70;;
651;SDS011;310;48.490;9.200;2022-07-10T03:49:16;14.57;;;11.47;;
651;SDS011;310;48.490;9.200;2022-07-10T03:51:42;16.17;;;12.77;;
651;SDS011;310;48.490;9.200;2022-07-10T03:54:08;20.30;;;13.50;;
651;SDS011;310;48.490;9.200;2022-07-10T03:56:33;18.40;;;13.17;;
651;SDS011;310;48.490;9.200;2022-07-10T03:59:18;20.40;;;14.63;;
651;SDS011;310;48.490;9.200;2022-07-10T04:01:43;19.50;;;15.57;;
651;SDS011;310;48.490;9.200;2022-07-10T04:04:09;18.83;;;15.00;;
651;SDS011;310;48.490;9.200;2022-07-10T04:06:34;24.30;;;14.47;;
651;SDS011;310;48.490;9.200;2022-07-10T04:09:03;22.40;;;14.50;;
651;SDS011;310;48.490;9.200;2022-07-10T04:11:29;20.00;;;13.97;;
651;SDS011;310;48.490;9.200;2022-07-10T04:13:55;23.47;;;15.03;;
651;SDS011;310;48.490;9.200;2022-07-10T04:16:21;20.60;;;14.90;;
651;SDS011;310;48.490;9.200;2022-07-10T04:18:50;18.53;;;15.23;;
651;SDS011;310;48.490;9.200;2022-07-10T04:21:15;17.40;;;14.67;;
651;SDS011;310;48.490;9.200;2022-07-10T04:23:41;19.87;;;14.10;;
651;SDS011;310;48.490;9.200;2022-07-10T04:26:07;19.27;;;14.43;;
651;SDS011;310;48.490;9.200;2022-07-10T04:28:33;28.70;;;14.70;;
651;SDS011;310;48.490;9.200;2022-07-10T04:30:58;21.13;;;15.60;;
651;SDS011;310;48.490;9.200;2022-07-10T04:33:25;20.20;;;13.87;;
651;SDS011;310;48.490;9.200;2022-07-10T04:35:51;22.43;;;14.93;;
651;SDS011;310;48.490;9.200;2022-07-10T04:38:17;21.73;;;14.97;;
651;SDS011;310;48.490;9.200;2022-07-10T04:40:42;19.03;;;15.30;;
651;SDS011;310;48.490;9.200;2022-07-10T04:43:08;19.63;;;14.50;;
651;SDS011;310;48.490;9.200;2022-07-10T04:45:35;19.87;;;14.27;;
651;SDS011;310;48.490;9.200;2022-07-10T04:48:04;19.97;;;14.97;;
651;SDS011;310;48.490;9.200;2022-07-10T04:50:30;25.10;;;15.07;;
651;SDS011;310;48.490;9.200;2022-07-10T04:52:56;18.50;;;13.73;;
651;SDS011;310;48.490;9.200;2022-07-10T04:55:22;20.17;;;14.63;;
651;SDS011;310;48.490;9.200;2022-07-10T04:57:48;17.30;;;13.37;;
651;SDS011;310;48.490;9.200;2022-07-10T05:00:14;16.13;;;13.10;;
651;SDS011;310;48.490;9.200;2022-07-10T05:02:40;18.50;;;13.60;;
651;SDS011;310;48.490;9.200;2022-07-10T05:05:06;18.97;;;13.90;;
651;SDS011;310;48.490;9.200;2022-07-10T05:07:32;19.10;;;13.17;;
651;SDS011;310;48.490;9.200;2022-07-10T05:09:57;22.10;;;13.20;;
651;SDS011;310;48.490;9.200;2022-07-10T05:12:23;20.40;;;14.07;;
651;SDS011;310;48.490;9.200;2022-07-10T05:14:49;20.47;;;13.67;;
651;SDS011;310;48.490;9.200;2022-07-10T05:17:14;16.00;;;12.90;;
651;SDS011;310;48.490;9.200;2022-07-10T05:19:40;20.40;;;13.00;;
651;SDS011;310;48.490;9.200;2022-07-10T05:22:06;20.70;;;11.53;;
651;SDS011;310;48.490;9.200;2022-07-10T05:24:32;27.43;;;13.03;;
651;SDS011;310;48.490;9.200;2022-07-10T05:26:58;16.23;;;12.50;;
651;SDS011;310;48.490;9.200;2022-07-10T05:29:23;18.10;;;12.10;;
651;SDS011;310;48.490;9.200;2022-07-10T05:31:49;20.73;;;12.90;;
651;SDS011;310;48.490;9.200;2022-07-10T05:34:15;19.80;;;12.23;;
651;SDS011;310;48.490;9.200;2022-07-10T05:36:40;17.60;;;12.00;;
651;SDS011;310;48.490;9.200;2022-07-10T05:39:06;18.00;;;12.00;;
651;SDS011;310;48.490;9.200;2022-07-10T05:41:31;18.10;;;12.40;;
651;SDS011;310;48.490;9.200;2022-07-10T05:43:58;17.53;;;10.80;;
651;SDS011;310;48.490;9.200;2022-07-10T05:46:26;19.37;;;10.80;;
651;SDS011;310;48.490;9.200;2022-07-10T05:48:52;14.70;;;11.10;;
651;SDS011;310;48.490;9.200;2022-07-10T05:51:17;15.77;;;10.73;;
651;SDS011;310;48.490;9.200;2022-07-10T05:53:43;16.40;;;10.43;;
651;SDS011;310;48.490;9.200;2022-07-10T05:56:09;12.90;;;9.33;;
651;SDS011;310;48.490;9.200;2022-07-10T05:58:34;17.70;;;10.60;;
651;SDS011;310;48.490;9.200;2022-07-10T06:01:00;14.20;;;9.47;;
651;SDS011;310;48.490;9.200;2022-07-10T06:03:26;15.23;;;9.30;;
651;SDS011;310;48.490;9.200;2022-07-10T06:05:51;15.50;;;8.83;;
651;SDS011;310;48.490;9.200;2022-07-10T06:08:17;15.70;;;9.23;;
651;SDS011;310;48.490;9.200;2022-07-10T06:10:43;14.07;;;8.63;;
651;SDS011;310;48.490;9.200;2022-07-10T06:13:10;12.37;;;7.90;;
651;SDS011;310;48.490;9.200;2022-07-10T06:15:36;12.90;;;8.87;;
651;SDS011;310;48.490;9.200;2022-07-10T06:18:02;17.27;;;8.20;;
651;SDS011;310;48.490;9.200;2022-07-10T06:20:28;15.20;;;7.47;;
651;SDS011;310;48.490;9.200;2022-07-10T06:22:53;17.80;;;7.40;;
651;SDS011;310;48.490;9.200;2022-07-10T06:25:19;12.40;;;6.97;;
651;SDS011;310;48.490;9.200;2022-07-10T06:27:45;13.17;;;6.90;;
651;SDS011;310;48.490;9.200;2022-07-10T06:30:11;13.37;;;7.00;;
651;SDS011;310;48.490;9.200;2022-07-10T06:32:37;11.87;;;7.50;;
651;SDS011;310;48.490;9.200;2022-07-10T06:35:04;14.73;;;7.37;;
651;SDS011;310;48.490;9.200;2022-07-10T06:37:30;13.83;;;7.17;;
651;SDS011;310;48.490;9.200;2022-07-10T06:39:56;21.33;;;7.53;;
651;SDS011;310;48.490;9.200;2022-07-10T06:42:22;9.83;;;6.23;;
651;SDS011;310;48.490;9.200;2022-07-10T06:44:47;11.53;;;7.40;;
651;SDS011;310;48.490;9.200;2022-07-10T06:47:14;15.33;;;6.63;;
651;SDS011;310;48.490;9.200;2022-07-10T06:49:59;10.40;;;6.57;;
651;SDS011;310;48.490;9.200;2022-07-10T06:52:26;10.90;;;6.30;;
651;SDS011;310;48.490;9.200;2022-07-10T06:54:52;8.30;;;6.10;;
651;SDS011;310;48.490;9.200;2022-07-10T06:57:18;11.10;;;6.80;;
651;SDS011;310;48.490;9.200;2022-07-10T06:59:45;13.23;;;6.40;;
651;SDS011;310;48.490;9.200;2022-07-10T07:02:11;9.30;;;5.17;;
651;SDS011;310;48.490;9.200;2022-07-10T07:04:36;11.10;;;5.70;;
651;SDS011;310;48.490;9.200;2022-07-10T07:07:02;9.37;;;5.57;;
651;SDS011;310;48.490;9.200;2022-07-10T07:09:28;7.30;;;5.30;;
651;SDS011;310;48.490;9.200;2022-07-10T07:11:54;11.00;;;5.00;;
651;SDS011;310;48.490;9.200;2022-07-10T07:14:19;12.00;;;5.03;;
651;SDS011;310;48.490;9.200;2022-07-10T07:16:45;9.73;;;4.67;;
651;SDS011;310;48.490;9.200;2022-07-10T07:19:21;10.10;;;4.43;;
651;SDS011;310;48.490;9.200;2022-07-10T07:21:55;12.47;;;4.47;;
651;SDS011;310;48.490;9.200;2022-07-10T07:24:43;14.13;;;4.87;;
651;SDS011;310;48.490;9.200;2022-07-10T07:27:09;9.50;;;4.90;;
651;SDS011;310;48.490;9.200;2022-07-10T07:29:36;8.73;;;4.97;;
651;SDS011;310;48.490;9.200;2022-07-10T07:32:02;11.37;;;4.50;;
651;SDS011;310;48.490;9.200;2022-07-10T07:34:28;12.23;;;4.77;;
651;SDS011;310;48.490;9.200;2022-07-10T07:36:53;9.80;;;4.60;;
651;SDS011;310;48.490;9.200;2022-07-10T07:39:19;5.40;;;3.70;;
651;SDS011;310;48.490;9.200;2022-07-10T07:41:44;5.67;;;4.20;;
651;SDS011;310;48.490;9.200;2022-07-10T07:44:10;9.10;;;5.13;;
651;SDS011;310;48.490;9.200;2022-07-10T07:46:37;6.80;;;4.50;;
651;SDS011;310;48.490;9.200;2022-07-10T07:49:03;12.80;;;5.03;;
651;SDS011;310;48.490;9.200;2022-07-10T07:51:28;9.43;;;4.30;;
651;SDS011;310;48.490;9.200;2022-07-10T07:53:54;12.13;;;4.63;;
651;SDS011;310;48.490;9.200;2022-07-10T07:56:19;11.67;;;4.17;;
651;SDS011;310;48.490;9.200;2022-07-10T07:58:45;8.37;;;4.87;;
651;SDS011;310;48.490;9.200;2022-07-10T08:01:10;7.13;;;4.40;;
651;SDS011;310;48.490;9.200;2022-07-10T08:03:36;8.40;;;4.30;;
651;SDS011;310;48.490;9.200;2022-07-10T08:06:02;7.80;;;4.53;;
651;SDS011;310;48.490;9.200;2022-07-10T08:08:28;7.80;;;4.57;;
651;SDS011;310;48.490;9.200;2022-07-10T08:10:53;12.70;;;4.50;;
651;SDS011;310;48.490;9.200;2022-07-10T08:13:19;7.33;;;5.30;;
651;SDS011;310;48.490;9.200;2022-07-10T08:15:45;12.47;;;5.33;;
651;SDS011;310;48.490;9.200;2022-07-10T08:18:10;10.43;;;4.80;;
651;SDS011;310;48.490;9.200;2022-07-10T08:20:36;17.60;;;5.00;;
651;SDS011;310;48.490;9.200;2022-07-10T08:23:01;12.37;;;5.17;;
651;SDS011;310;48.490;9.200;2022-07-10T08:25:28;11.33;;;4.37;;
651;SDS011;310;48.490;9.200;2022-07-10T08:28:01;7.67;;;4.70;;
651;SDS011;310;48.490;9.200;2022-07-10T08:30:28;11.33;;;4.40;;
651;SDS011;310;48.490;9.200;2022-07-10T08:32:54;9.27;;;4.90;;
651;SDS011;310;48.490;9.200;2022-07-10T08:35:21;6.87;;;4.43;;
651;SDS011;310;48.490;9.200;2022-07-10T08:37:46;9.20;;;4.80;;
651;SDS011;310;48.490;9.200;2022-07-10T08:40:13;8.53;;;4.30;;
651;SDS011;310;48.490;9.200;2022-07-10T08:42:42;8.33;;;4.60;;
651;SDS011;310;48.490;9.200;2022-07-10T08:45:12;9.63;;;4.40;;
651;SDS011;310;48.490;9.200;2022-07-10T08:47:38;11.03;;;4.87;;
651;SDS011;310;48.490;9.200;2022-07-10T08:50:27;7.20;;;4.30;;
651;SDS011;310;48.490;9.200;2022-07-10T08:53:11;10.37;;;4.67;;
651;SDS011;310;48.490;9.200;2022-07-10T08:55:39;8.47;;;4.47;;
651;SDS011;310;48.490;9.200;2022-07-10T08:58:04;7.37;;;4.10;;
651;SDS011;310;48.490;9.200;2022-07-10T09:00:33;7.50;;;4.33;;
651;SDS011;310;48.490;9.200;2022-07-10T09:02:58;8.63;;;4.40;;
651;SDS011;310;48.490;9.200;2022-07-10T09:05:24;15.07;;;4.47;;
651;SDS011;310;48.490;9.200;2022-07-10T09:07:51;8.57;;;4.07;;
651;SDS011;310;48.490;9.200;2022-07-10T09:10:19;9.73;;;4.40;;
651;SDS011;310;48.490;9.200;2022-07-10T09:15:27;9.77;;;4.17;;
651;SDS011;310;48.490;9.200;2022-07-10T09:18:01;8.33;;;4.27;;
651;SDS011;310;48.490;9.200;2022-07-10T09:23:21;6.27;;;4.27;;
651;SDS011;310;48.490;9.200;2022-07-10T09:25:51;6.37;;;4.37;;
651;SDS011;310;48.490;9.200;2022-07-10T09:28:18;11.70;;;4.50;;
651;SDS011;310;48.490;9.200;2022-07-10T09:30:45;13.10;;;4.43;;
651;SDS011;310;48.490;9.200;2022-07-10T09:33:22;9.20;;;4.30;;
651;SDS011;310;48.490;9.200;2022-07-10T09:36:02;9.90;;;4.60;;
651;SDS011;310;48.490;9.200;2022-07-10T09:41:13;5.40;;;4.40;;
651;SDS011;310;48.490;9.200;2022-07-10T09:46:16;7.33;;;4.33;;
651;SDS011;310;48.490;9.200;2022-07-10T09:48:44;13.70;;;4.57;;
651;SDS011;310;48.490;9.200;2022-07-10T09:51:10;7.60;;;4.30;;
651;SDS011;310;48.490;9.200;2022-07-10T09:53:40;5.80;;;4.40;;
651;SDS011;310;48.490;9.200;2022-07-10T09:56:10;9.67;;;4.63;;
651;SDS011;310;48.490;9.200;2022-07-10T09:58:37;11.20;;;4.67;;
651;SDS011;310;48.490;9.200;2022-07-10T10:01:07;5.40;;;4.23;;
651;SDS011;310;48.490;9.200;2022-07-10T10:03:35;6.43;;;4.20;;
651;SDS011;310;48.490;9.200;2022-07-10T10:06:10;8.10;;;4.00;;
651;SDS011;310;48.490;9.200;2022-07-10T10:11:21;6.80;;;4.00;;
651;SDS011;310;48.490;9.200;2022-07-10T10:13:51;9.27;;;4.20;;
651;SDS011;310;48.490;9.200;2022-07-10T10:16:18;9.20;;;4.17;;
651;SDS011;310;48.490;9.200;2022-07-10T10:18:44;5.67;;;4.47;;
651;SDS011;310;48.490;9.200;2022-07-10T10:21:30;8.73;;;4.10;;
651;SDS011;310;48.490;9.200;2022-07-10T10:23:55;7.63;;;3.90;;
651;SDS011;310;48.490;9.200;2022-07-10T10:26:22;6.10;;;3.70;;
651;SDS011;310;48.490;9.200;2022-07-10T10:28:52;6.80;;;4.30;;
651;SDS011;310;48.490;9.200;2022-07-10T10:31:22;8.13;;;4.33;;
651;SDS011;310;48.490;9.200;2022-07-10T10:33:51;8.73;;;4.17;;
651;SDS011;310;48.490;9.200;2022-07-10T10:41:52;8.00;;;3.83;;
651;SDS011;310;48.490;9.200;2022-07-10T10:44:19;13.63;;;3.60;;
651;SDS011;310;48.490;9.200;2022-07-10T10:49:14;6.57;;;3.70;;
651;SDS011;310;48.490;9.200;2022-07-10T10:54:28;8.83;;;3.60;;
651;SDS011;310;48.490;9.200;2022-07-10T10:57:11;4.67;;;3.60;;
651;SDS011;310;48.490;9.200;2022-07-10T11:02:24;7.73;;;3.97;;
651;SDS011;310;48.490;9.200;2022-07-10T11:08:00;6.30;;;3.50;;
651;SDS011;310;48.490;9.200;2022-07-10T11:10:30;5.03;;;3.30;;
651;SDS011;310;48.490;9.200;2022-07-10T11:15:41;5.40;;;3.33;;
651;SDS011;310;48.490;9.200;2022-07-10T11:20:36;7.20;;;4.07;;
651;SDS011;310;48.490;9.200;2022-07-10T11:26:03;6.00;;;3.90;;
651;SDS011;310;48.490;9.200;2022-07-10T11:31:21;5.20;;;3.77;;
651;SDS011;310;48.490;9.200;2022-07-10T11:33:48;10.27;;;4.40;;
651;SDS011;310;48.490;9.200;2022-07-10T11:36:19;4.90;;;3.60;;
651;SDS011;310;48.490;9.200;2022-07-10T11:38:55;8.80;;;3.53;;
651;SDS011;310;48.490;9.200;2022-07-10T11:41:23;13.20;;;3.97;;
651;SDS011;310;48.490;9.200;2022-07-10T11:43:52;12.50;;;3.73;;
651;SDS011;310;48.490;9.200;2022-07-10T11:46:23;4.67;;;3.63;;
651;SDS011;310;48.490;9.200;2022-07-10T11:48:50;4.70;;;3.40;;
651;SDS011;310;48.490;9.200;2022-07-10T11:51:23;3.73;;;3.00;;
651;SDS011;310;48.490;9.200;2022-07-10T11:53:59;10.00;;;4.90;;
651;SDS011;310;48.490;9.200;2022-07-10T11:56:29;5.13;;;3.27;;
651;SDS011;310;48.490;9.200;2022-07-10T11:59:07;4.37;;;3.43;;
651;SDS011;310;48.490;9.200;2022-07-10T12:01:35;6.57;;;3.27;;
651;SDS011;310;48.490;9.200;2022-07-10T12:04:09;7.80;;;3.50;;
651;SDS011;310;48.490;9.200;2022-07-10T12:06:36;9.23;;;3.63;;
651;SDS011;310;48.490;9.200;2022-07-10T12:09:04;6.47;;;3.57;;
651;SDS011;310;48.490;9.200;2022-07-10T12:11:31;5.97;;;3.80;;
651;SDS011;310;48.490;9.200;2022-07-10T12:16:39;6.00;;;3.10;;
651;SDS011;310;48.490;9.200;2022-07-10T12:19:07;6.10;;;3.50;;
651;SDS011;310;48.490;9.200;2022-07-10T12:21:34;7.53;;;3.37;;
651;SDS011;310;48.490;9.200;2022-07-10T12:24:00;7.37;;;3.50;;
651;SDS011;310;48.490;9.200;2022-07-10T12:26:34;10.00;;;3.30;;
651;SDS011;310;48.490;9.200;2022-07-10T12:29:01;6.40;;;3.20;;
651;SDS011;310;48.490;9.200;2022-07-10T12:31:29;4.57;;;3.10;;
651;SDS011;310;48.490;9.200;2022-07-10T12:34:00;5.37;;;3.50;;
651;SDS011;310;48.490;9.200;2022-07-10T12:39:11;5.80;;;3.50;;
651;SDS011;310;48.490;9.200;2022-07-10T12:41:54;5.00;;;3.60;;
651;SDS011;310;48.490;9.200;2022-07-10T12:44:36;9.83;;;3.40;;
651;SDS011;310;48.490;9.200;2022-07-10T12:47:07;4.60;;;3.33;;
651;SDS011;310;48.490;9.200;2022-07-10T12:57:44;4.50;;;3.20;;
651;SDS011;310;48.490;9.200;2022-07-10T13:00:24;6.83;;;3.10;;
651;SDS011;310;48.490;9.200;2022-07-10T13:10:53;10.20;;;3.17;;
651;SDS011;310;48.490;9.200;2022-07-10T13:13:19;6.40;;;2.87;;
651;SDS011;310;48.490;9.200;2022-07-10T13:15:45;9.13;;;3.03;;
651;SDS011;310;48.490;9.200;2022-07-10T13:18:16;6.57;;;2.70;;
651;SDS011;310;48.490;9.200;2022-07-10T13:20:45;5.97;;;2.80;;
651;SDS011;310;48.490;9.200;2022-07-10T13:23:11;4.00;;;2.80;;
651;SDS011;310;48.490;9.200;2022-07-10T13:25:37;4.30;;;2.67;;
651;SDS011;310;48.490;9.200;2022-07-10T13:28:04;3.73;;;2.83;;
651;SDS011;310;48.490;9.200;2022-07-10T13:30:30;3.60;;;2.50;;
651;SDS011;310;48.490;9.200;2022-07-10T13:32:56;4.30;;;2.70;;
651;SDS011;310;48.490;9.200;2022-07-10T13:35:22;7.03;;;2.80;;
651;SDS011;310;48.490;9.200;2022-07-10T13:37:48;5.43;;;2.90;;
651;SDS011;310;48.490;9.200;2022-07-10T13:40:14;3.70;;;2.40;;
651;SDS011;310;48.490;9.200;2022-07-10T13:42:39;14.80;;;2.70;;
651;SDS011;310;48.490;9.200;2022-07-10T13:45:05;3.30;;;2.60;;
651;SDS011;310;48.490;9.200;2022-07-10T13:47:33;5.87;;;2.90;;
651;SDS011;310;48.490;9.200;2022-07-10T13:49:59;9.60;;;2.50;;
651;SDS011;310;48.490;9.200;2022-07-10T13:52:24;5.30;;;2.70;;
651;SDS011;310;48.490;9.200;2022-07-10T13:54:50;3.90;;;2.47;;
651;SDS011;310;48.490;9.200;2022-07-10T13:57:16;4.87;;;2.60;;
651;SDS011;310;48.490;9.200;2022-07-10T13:59:41;3.93;;;2.73;;
651;SDS011;310;48.490;9.200;2022-07-10T14:02:07;4.93;;;2.70;;
651;SDS011;310;48.490;9.200;2022-07-10T14:04:32;9.00;;;2.80;;
651;SDS011;310;48.490;9.200;2022-07-10T14:06:58;6.60;;;2.60;;
651;SDS011;310;48.490;9.200;2022-07-10T14:09:24;4.57;;;2.40;;
651;SDS011;310;48.490;9.200;2022-07-10T14:11:50;5.10;;;2.30;;
651;SDS011;310;48.490;9.200;2022-07-10T14:14:15;3.80;;;2.33;;
651;SDS011;310;48.490;9.200;2022-07-10T14:16:41;6.73;;;2.60;;
651;SDS011;310;48.490;9.200;2022-07-10T14:19:08;4.60;;;2.40;;
651;SDS011;310;48.490;9.200;2022-07-10T14:21:34;4.40;;;2.40;;
651;SDS011;310;48.490;9.200;2022-07-10T14:24:01;4.53;;;2.43;;
651;SDS011;310;48.490;9.200;2022-07-10T14:26:27;2.70;;;2.20;;
651;SDS011;310;48.490;9.200;2022-07-10T14:28:53;9.63;;;2.40;;
651;SDS011;310;48.490;9.200;2022-07-10T14:31:20;4.77;;;2.50;;
651;SDS011;310;48.490;9.200;2022-07-10T14:33:45;3.60;;;2.30;;
651;SDS011;310;48.490;9.200;2022-07-10T14:36:11;4.87;;;2.43;;
651;SDS011;310;48.490;9.200;2022-07-10T14:38:37;6.40;;;2.47;;
651;SDS011;310;48.490;9.200;2022-07-10T14:41:02;5.87;;;2.30;;
651;SDS011;310;48.490;9.200;2022-07-10T14:43:30;2.83;;;2.20;;
651;SDS011;310;48.490;9.200;2022-07-10T14:45:58;7.10;;;2.20;;
651;SDS011;310;48.490;9.200;2022-07-10T14:48:28;5.50;;;2.00;;
651;SDS011;310;48.490;9.200;2022-07-10T14:50:58;3.27;;;2.30;;
651;SDS011;310;48.490;9.200;2022-07-10T14:53:24;2.40;;;2.20;;
651;SDS011;310;48.490;9.200;2022-07-10T14:55:50;3.47;;;1.97;;
651;SDS011;310;48.490;9.200;2022-07-10T14:58:15;4.77;;;2.20;;
651;SDS011;310;48.490;9.200;2022-07-10T15:00:41;4.60;;;2.33;;
651;SDS011;310;48.490;9.200;2022-07-10T15:03:07;2.50;;;1.93;;
651;SDS011;310;48.490;9.200;2022-07-10T15:05:33;3.73;;;2.30;;
651;SDS011;310;48.490;9.200;2022-07-10T15:07:59;4.57;;;2.30;;
651;SDS011;310;48.490;9.200;2022-07-10T15:10:26;8.03;;;2.10;;
651;SDS011;310;48.490;9.200;2022-07-10T15:12:51;4.90;;;2.00;;
651;SDS011;310;48.490;9.200;2022-07-10T15:15:17;5.23;;;2.60;;
651;SDS011;310;48.490;9.200;2022-07-10T15:17:43;4.70;;;2.37;;
651;SDS011;310;48.490;9.200;2022-07-10T15:20:09;3.63;;;2.30;;
651;SDS011;310;48.490;9.200;2022-07-10T15:22:35;5.93;;;3.20;;
651;SDS011;310;48.490;9.200;2022-07-10T15:25:01;7.43;;;2.80;;
651;SDS011;310;48.490;9.200;2022-07-10T15:27:27;7.20;;;2.73;;
651;SDS011;310;48.490;9.200;2022-07-10T15:29:53;12.93;;;2.27;;
651;SDS011;310;48.490;9.200;2022-07-10T15:32:19;5.67;;;2.20;;
651;SDS011;310;48.490;9.200;2022-07-10T15:34:46;4.53;;;2.40;;
651;SDS011;310;48.490;9.200;2022-07-10T15:37:13;4.50;;;2.60;;
651;SDS011;310;48.490;9.200;2022-07-10T15:39:40;4.60;;;2.00;;
651;SDS011;310;48.490;9.200;2022-07-10T15:42:11;7.43;;;2.50;;
651;SDS011;310;48.490;9.200;2022-07-10T15:44:37;4.93;;;2.20;;
651;SDS011;310;48.490;9.200;2022-07-10T15:47:03;4.17;;;2.47;;
651;SDS011;310;48.490;9.200;2022-07-10T15:49:29;6.57;;;2.13;;
651;SDS011;310;48.490;9.200;2022-07-10T15:51:55;4.83;;;2.10;;
651;SDS011;310;48.490;9.200;2022-07-10T15:54:21;9.90;;;2.77;;
651;SDS011;310;48.490;9.200;2022-07-10T15:56:47;3.83;;;2.13;;
651;SDS011;310;48.490;9.200;2022-07-10T15:59:13;2.83;;;2.00;;
651;SDS011;310;48.490;9.200;2022-07-10T16:01:38;5.20;;;2.07;;
651;SDS011;310;48.490;9.200;2022-07-10T16:04:04;6.50;;;2.57;;
651;SDS011;310;48.490;9.200;2022-07-10T16:06:29;4.20;;;2.30;;
651;SDS011;310;48.490;9.200;2022-07-10T16:08:55;5.57;;;2.20;;
651;SDS011;310;48.490;9.200;2022-07-10T16:11:21;2.60;;;1.97;;
651;SDS011;310;48.490;9.200;2022-07-10T16:13:47;5.30;;;2.17;;
651;SDS011;310;48.490;9.200;2022-07-10T16:16:13;3.40;;;2.30;;
651;SDS011;310;48.490;9.200;2022-07-10T16:18:39;5.63;;;2.20;;
651;SDS011;310;48.490;9.200;2022-07-10T16:21:05;2.90;;;2.03;;
651;SDS011;310;48.490;9.200;2022-07-10T16:23:31;3.73;;;2.10;;
651;SDS011;310;48.490;9.200;2022-07-10T16:25:56;8.73;;;2.10;;
651;SDS011;310;48.490;9.200;2022-07-10T16:28:24;5.93;;;2.90;;
651;SDS011;310;48.490;9.200;2022-07-10T16:30:50;3.83;;;2.33;;
651;SDS011;310;48.490;9.200;2022-07-10T16:33:15;20.00;;;2.20;;
651;SDS011;310;48.490;9.200;2022-07-10T16:35:42;5.03;;;2.30;;
651;SDS011;310;48.490;9.200;2022-07-10T16:38:08;4.30;;;2.27;;